Wetterdaten: Woche 14.05.18 - 20.05.18 (KW20)
Datum Zeit Temp. 2m rel. Feuchte Luftdruck Regen Wind Richtung Sonne ET UV-Index Solar Taupunkt Ben
14.05.2018 00:00 12,3 C 96 % 1012,0 hPa 1,6 mm 0,4 km/h (0 Bft) N 0,00 h 0,0 mm 0,0 UV-I 0 W/m 11,6 C 2,8 km/h (1 Bft)
14.05.2018 01:00 12,0 C 97 % 1011,5 hPa 0,0 mm 0,6 km/h (0 Bft) O 0,00 h 0,0 mm 0,0 UV-I 0 W/m 11,6 C 3,7 km/h (1 Bft)
14.05.2018 02:00 12,0 C 97 % 1011,3 hPa 0,0 mm 0,2 km/h (0 Bft) N 0,00 h 0,0 mm 0,0 UV-I 0 W/m 11,6 C 2,6 km/h (1 Bft)
14.05.2018 03:00 12,1 C 98 % 1011,0 hPa 0,0 mm 0,3 km/h (0 Bft) N 0,00 h 0,0 mm 0,0 UV-I 0 W/m 11,8 C 2,6 km/h (1 Bft)
14.05.2018 04:00 12,1 C 98 % 1010,8 hPa 0,0 mm 0,7 km/h (0 Bft) O 0,00 h 0,0 mm 0,0 UV-I 0 W/m 11,8 C 4,6 km/h (1 Bft)
14.05.2018 05:00 12,0 C 98 % 1010,7 hPa 0,0 mm 0,8 km/h (0 Bft) O 0,00 h 0,0 mm 0,0 UV-I 0 W/m 11,7 C 4,4 km/h (1 Bft)
14.05.2018 06:00 12,2 C 98 % 1010,6 hPa 0,0 mm 0,6 km/h (0 Bft) O 0,00 h 0,0 mm 0,0 UV-I 7 W/m 11,9 C 3,9 km/h (1 Bft)
14.05.2018 07:00 12,4 C 99 % 1010,7 hPa 0,0 mm 0,4 km/h (0 Bft) N 0,00 h 0,0 mm 0,0 UV-I 19 W/m 12,3 C 3,1 km/h (1 Bft)
14.05.2018 08:00 13,1 C 99 % 1010,7 hPa 0,0 mm 0,5 km/h (0 Bft) O 0,00 h 0,0 mm 0,2 UV-I 86 W/m 13,0 C 3,5 km/h (1 Bft)
14.05.2018 09:00 14,0 C 99 % 1011,0 hPa 0,0 mm 0,2 km/h (0 Bft) N 0,00 h 0,1 mm 0,2 UV-I 130 W/m 13,8 C 2,6 km/h (1 Bft)
14.05.2018 10:00 15,1 C 97 % 1011,1 hPa 0,0 mm 0,5 km/h (0 Bft) N 0,08 h 0,1 mm 0,3 UV-I 257 W/m 14,5 C 3,7 km/h (1 Bft)
14.05.2018 11:00 16,4 C 92 % 1011,0 hPa 0,0 mm 0,4 km/h (0 Bft) O 0,00 h 0,1 mm 0,2 UV-I 242 W/m 15,1 C 3,5 km/h (1 Bft)
14.05.2018 12:00 18,7 C 83 % 1010,9 hPa 0,0 mm 0,5 km/h (0 Bft) N 0,83 h 0,1 mm 0,8 UV-I 703 W/m 15,6 C 3,3 km/h (1 Bft)
14.05.2018 13:00 20,8 C 76 % 1010,9 hPa 0,0 mm 1,5 km/h (1 Bft) N-NW 1,00 h 0,4 mm 0,6 UV-I 772 W/m 16,5 C 7,8 km/h (2 Bft)
14.05.2018 14:00 22,9 C 66 % 1010,8 hPa 0,0 mm 0,9 km/h (0 Bft) NO 1,00 h 0,4 mm 0,5 UV-I 733 W/m 16,0 C 3,7 km/h (1 Bft)
14.05.2018 15:00 24,3 C 55 % 1010,5 hPa 0,0 mm 1,5 km/h (1 Bft) O-NO 1,00 h 0,5 mm 0,4 UV-I 684 W/m 14,6 C 4,8 km/h (1 Bft)
14.05.2018 16:00 25,6 C 47 % 1010,2 hPa 0,0 mm 1,7 km/h (1 Bft) O 1,00 h 0,4 mm 0,2 UV-I 581 W/m 13,4 C 4,8 km/h (1 Bft)
14.05.2018 17:00 26,4 C 41 % 1010,0 hPa 0,0 mm 1,8 km/h (1 Bft) O-SO 1,00 h 0,4 mm 0,1 UV-I 459 W/m 11,9 C 5,3 km/h (1 Bft)
14.05.2018 18:00 26,1 C 36 % 1009,9 hPa 0,0 mm 2,2 km/h (1 Bft) O-SO 0,58 h 0,3 mm 0,0 UV-I 279 W/m 10,0 C 5,9 km/h (2 Bft)
14.05.2018 19:00 24,6 C 41 % 1010,3 hPa 0,0 mm 1,0 km/h (0 Bft) O-SO 0,17 h 0,2 mm 0,0 UV-I 89 W/m 10,4 C 3,7 km/h (1 Bft)
14.05.2018 20:00 23,8 C 42 % 1010,5 hPa 0,0 mm 0,4 km/h (0 Bft) N 0,00 h 0,1 mm 0,0 UV-I 35 W/m 10,3 C 2,4 km/h (1 Bft)
14.05.2018 21:00 22,4 C 47 % 1011,1 hPa 0,0 mm 0,1 km/h (0 Bft) N 0,08 h 0,0 mm 0,0 UV-I 7 W/m 10,6 C 0,9 km/h (0 Bft)
14.05.2018 22:00 19,5 C 62 % 1011,6 hPa 0,0 mm 0,0 km/h (0 Bft) N 0,00 h 0,0 mm 0,0 UV-I 0 W/m 12,0 C 0,2 km/h (0 Bft)
14.05.2018 23:00 17,1 C 71 % 1012,4 hPa 0,0 mm 0,0 km/h (0 Bft) N 0,00 h 0,0 mm 0,0 UV-I 0 W/m 11,8 C 0,0 km/h (0 Bft)
15.05.2018 00:00 15,8 C 75 % 1012,6 hPa 0,0 mm 0,0 km/h (0 Bft) N 0,00 h 0,0 mm 0,0 UV-I 0 W/m 11,3 C 0,0 km/h (0 Bft)
15.05.2018 01:00 14,7 C 76 % 1012,7 hPa 0,0 mm 0,0 km/h (0 Bft) N 0,00 h 0,0 mm 0,0 UV-I 0 W/m 10,6 C 0,0 km/h (0 Bft)
15.05.2018 02:00 13,6 C 80 % 1012,8 hPa 0,0 mm 0,1 km/h (0 Bft) N 0,00 h 0,0 mm 0,0 UV-I 0 W/m 10,2 C 0,4 km/h (0 Bft)
15.05.2018 03:00 12,7 C 81 % 1013,0 hPa 0,0 mm 0,1 km/h (0 Bft) N 0,00 h 0,0 mm 0,0 UV-I 0 W/m 9,5 C 0,6 km/h (0 Bft)
15.05.2018 04:00 11,9 C 84 % 1013,1 hPa 0,0 mm 0,5 km/h (0 Bft) O 0,00 h 0,0 mm 0,0 UV-I 0 W/m 9,3 C 2,4 km/h (1 Bft)
15.05.2018 05:00 11,5 C 88 % 1013,3 hPa 0,0 mm 0,8 km/h (0 Bft) O 0,00 h 0,0 mm 0,0 UV-I 4 W/m 9,5 C 2,9 km/h (1 Bft)
15.05.2018 06:00 11,4 C 89 % 1013,6 hPa 0,0 mm 1,0 km/h (0 Bft) O 0,00 h 0,0 mm 0,0 UV-I 18 W/m 9,7 C 4,1 km/h (1 Bft)
15.05.2018 07:00 12,1 C 86 % 1014,1 hPa 0,0 mm 0,7 km/h (0 Bft) O 0,00 h 0,0 mm 0,0 UV-I 35 W/m 9,9 C 2,4 km/h (1 Bft)
15.05.2018 08:00 15,7 C 66 % 1014,5 hPa 0,0 mm 0,4 km/h (0 Bft) O 0,00 h 0,0 mm 0,2 UV-I 66 W/m 9,3 C 2,8 km/h (1 Bft)
15.05.2018 09:00 17,9 C 55 % 1014,6 hPa 0,0 mm 0,7 km/h (0 Bft) O 0,67 h 0,1 mm 0,4 UV-I 398 W/m 8,6 C 3,3 km/h (1 Bft)
15.05.2018 10:00 19,9 C 46 % 1014,7 hPa 0,0 mm 1,4 km/h (1 Bft) S 1,00 h 0,2 mm 1,3 UV-I 605 W/m 8,0 C 6,1 km/h (2 Bft)
15.05.2018 11:00 21,5 C 42 % 1014,7 hPa 0,0 mm 1,5 km/h (1 Bft) S 1,00 h 0,4 mm 1,3 UV-I 634 W/m 7,9 C 6,4 km/h (2 Bft)
15.05.2018 12:00 22,8 C 35 % 1014,5 hPa 0,0 mm 1,9 km/h (1 Bft) SO 1,00 h 0,4 mm 0,4 UV-I 736 W/m 6,3 C 6,5 km/h (2 Bft)
15.05.2018 13:00 24,9 C 32 % 1014,4 hPa 0,0 mm 3,8 km/h (1 Bft) S-SO 0,92 h 0,5 mm 0,4 UV-I 784 W/m 6,9 C 12,8 km/h (3 Bft)
15.05.2018 14:00 24,2 C 31 % 1014,3 hPa 0,0 mm 1,3 km/h (1 Bft) O-SO 0,25 h 0,5 mm 0,2 UV-I 331 W/m 5,9 C 5,2 km/h (1 Bft)
15.05.2018 15:00 23,3 C 34 % 1014,2 hPa 0,0 mm 0,8 km/h (0 Bft) S-SO 0,50 h 0,2 mm 0,2 UV-I 553 W/m 6,4 C 3,3 km/h (1 Bft)
15.05.2018 16:00 24,1 C 33 % 1013,7 hPa 0,0 mm 1,1 km/h (1 Bft) SO 0,58 h 0,3 mm 0,2 UV-I 417 W/m 7,0 C 4,4 km/h (1 Bft)
15.05.2018 17:00 23,4 C 35 % 1013,5 hPa 0,0 mm 0,9 km/h (0 Bft) O-SO 0,58 h 0,3 mm 0,1 UV-I 355 W/m 7,1 C 3,7 km/h (1 Bft)
15.05.2018 18:00 23,4 C 34 % 1013,3 hPa 0,0 mm 1,8 km/h (1 Bft) O-SO 1,00 h 0,2 mm 0,0 UV-I 333 W/m 6,5 C 4,6 km/h (1 Bft)
15.05.2018 19:00 22,8 C 36 % 1013,3 hPa 0,0 mm 1,3 km/h (1 Bft) O-SO 0,92 h 0,2 mm 0,0 UV-I 187 W/m 6,9 C 3,5 km/h (1 Bft)
15.05.2018 20:00 21,7 C 38 % 1013,5 hPa 0,0 mm 0,2 km/h (0 Bft) N 0,17 h 0,1 mm 0,0 UV-I 39 W/m 6,6 C 1,8 km/h (1 Bft)
15.05.2018 21:00 20,0 C 47 % 1013,7 hPa 0,0 mm 0,0 km/h (0 Bft) N 0,08 h 0,0 mm 0,0 UV-I 11 W/m 8,2 C 0,0 km/h (0 Bft)
15.05.2018 22:00 17,4 C 58 % 1013,9 hPa 0,0 mm 0,1 km/h (0 Bft) O 0,00 h 0,0 mm 0,0 UV-I 0 W/m 9,0 C 0,7 km/h (0 Bft)
15.05.2018 23:00 16,0 C 63 % 1013,8 hPa 0,0 mm 1,5 km/h (1 Bft) O 0,00 h 0,0 mm 0,0 UV-I 0 W/m 8,9 C 4,1 km/h (1 Bft)
16.05.2018 00:00 15,7 C 65 % 1013,6 hPa 0,0 mm 0,2 km/h (0 Bft) N 0,00 h 0,0 mm 0,0 UV-I 0 W/m 9,0 C 1,7 km/h (1 Bft)
16.05.2018 01:00 15,6 C 65 % 1013,3 hPa 0,0 mm 0,1 km/h (0 Bft) N 0,00 h 0,0 mm 0,0 UV-I 0 W/m 9,0 C 1,5 km/h (1 Bft)
16.05.2018 02:00 15,3 C 67 % 1013,3 hPa 0,0 mm 0,0 km/h (0 Bft) N 0,00 h 0,0 mm 0,0 UV-I 0 W/m 9,2 C 0,6 km/h (0 Bft)
16.05.2018 03:00 15,3 C 70 % 1013,5 hPa 0,0 mm 0,1 km/h (0 Bft) N 0,00 h 0,0 mm 0,0 UV-I 0 W/m 9,9 C 0,6 km/h (0 Bft)
16.05.2018 04:00 14,9 C 79 % 1013,9 hPa 0,0 mm 3,2 km/h (1 Bft) O 0,00 h 0,0 mm 0,0 UV-I 0 W/m 11,4 C 9,8 km/h (2 Bft)
16.05.2018 05:00 14,2 C 84 % 1013,7 hPa 0,0 mm 1,0 km/h (0 Bft) O 0,00 h 0,0 mm 0,0 UV-I 6 W/m 11,5 C 3,5 km/h (1 Bft)
16.05.2018 06:00 13,7 C 86 % 1014,2 hPa 0,0 mm 0,2 km/h (0 Bft) O 0,00 h 0,0 mm 0,0 UV-I 18 W/m 11,4 C 1,3 km/h (1 Bft)
16.05.2018 07:00 13,6 C 88 % 1014,7 hPa 0,0 mm 0,1 km/h (0 Bft) O 0,00 h 0,0 mm 0,0 UV-I 47 W/m 11,6 C 0,7 km/h (0 Bft)
16.05.2018 08:00 14,6 C 85 % 1015,0 hPa 0,0 mm 0,7 km/h (0 Bft) O 0,00 h 0,0 mm 0,1 UV-I 84 W/m 12,0 C 3,5 km/h (1 Bft)
16.05.2018 09:00 16,4 C 77 % 1015,2 hPa 0,0 mm 0,3 km/h (0 Bft) O 0,67 h 0,1 mm 0,2 UV-I 399 W/m 12,3 C 2,4 km/h (1 Bft)
16.05.2018 10:00 17,7 C 68 % 1015,3 hPa 0,0 mm 0,5 km/h (0 Bft) N-NW 0,50 h 0,2 mm 0,6 UV-I 401 W/m 11,8 C 2,9 km/h (1 Bft)
16.05.2018 11:00 18,7 C 62 % 1015,6 hPa 0,0 mm 0,8 km/h (0 Bft) N-NW 0,25 h 0,2 mm 0,8 UV-I 389 W/m 11,3 C 3,9 km/h (1 Bft)
16.05.2018 12:00 19,3 C 58 % 1015,7 hPa 0,0 mm 0,7 km/h (0 Bft) O 0,08 h 0,2 mm 0,3 UV-I 243 W/m 10,8 C 2,9 km/h (1 Bft)
16.05.2018 13:00 19,1 C 58 % 1015,9 hPa 0,0 mm 0,8 km/h (0 Bft) O 0,00 h 0,2 mm 0,3 UV-I 219 W/m 10,6 C 3,3 km/h (1 Bft)
16.05.2018 14:00 20,1 C 55 % 1015,9 hPa 0,0 mm 0,7 km/h (0 Bft) O 0,00 h 0,2 mm 0,3 UV-I 279 W/m 10,8 C 3,1 km/h (1 Bft)
16.05.2018 15:00 18,6 C 67 % 1016,5 hPa 0,0 mm 0,5 km/h (0 Bft) O 0,00 h 0,2 mm 0,0 UV-I 105 W/m 12,3 C 2,2 km/h (1 Bft)
16.05.2018 16:00 18,2 C 69 % 1016,2 hPa 0,0 mm 0,3 km/h (0 Bft) S 0,00 h 0,1 mm 0,1 UV-I 137 W/m 12,3 C 2,4 km/h (1 Bft)
16.05.2018 17:00 18,7 C 65 % 1015,7 hPa 0,0 mm 2,9 km/h (1 Bft) O 0,17 h 0,1 mm 0,1 UV-I 175 W/m 12,0 C 6,7 km/h (2 Bft)
16.05.2018 18:00 19,0 C 65 % 1015,5 hPa 0,0 mm 2,6 km/h (1 Bft) W-NW 0,00 h 0,1 mm 0,0 UV-I 97 W/m 12,3 C 7,6 km/h (2 Bft)
16.05.2018 19:00 17,7 C 75 % 1016,3 hPa 3,6 mm 3,0 km/h (1 Bft) O 0,00 h 0,1 mm 0,0 UV-I 52 W/m 13,2 C 8,7 km/h (2 Bft)
16.05.2018 20:00 14,4 C 90 % 1017,2 hPa 0,8 mm 2,9 km/h (1 Bft) O 0,00 h 0,0 mm 0,0 UV-I 13 W/m 12,7 C 7,4 km/h (2 Bft)
16.05.2018 21:00 13,8 C 94 % 1018,0 hPa 0,0 mm 4,4 km/h (1 Bft) O 0,08 h 0,0 mm 0,0 UV-I 11 W/m 12,8 C 8,3 km/h (2 Bft)
16.05.2018 22:00 13,1 C 93 % 1018,3 hPa 0,0 mm 4,0 km/h (1 Bft) O 0,00 h 0,0 mm 0,0 UV-I 0 W/m 12,1 C 9,8 km/h (2 Bft)
16.05.2018 23:00 13,0 C 89 % 1018,5 hPa 0,0 mm 1,2 km/h (1 Bft) O 0,00 h 0,0 mm 0,0 UV-I 0 W/m 11,2 C 3,9 km/h (1 Bft)
17.05.2018 00:00 12,4 C 88 % 1018,8 hPa 0,0 mm 0,6 km/h (0 Bft) O 0,00 h 0,0 mm 0,0 UV-I 0 W/m 10,5 C 3,5 km/h (1 Bft)
17.05.2018 01:00 11,7 C 89 % 1019,2 hPa 0,0 mm 0,4 km/h (0 Bft) O 0,00 h 0,0 mm 0,0 UV-I 0 W/m 9,9 C 2,9 km/h (1 Bft)
17.05.2018 02:00 11,0 C 87 % 1019,5 hPa 0,0 mm 0,9 km/h (0 Bft) O 0,00 h 0,0 mm 0,0 UV-I 0 W/m 8,8 C 5,0 km/h (1 Bft)
17.05.2018 03:00 9,9 C 86 % 1020,0 hPa 0,0 mm 0,9 km/h (0 Bft) O 0,00 h 0,0 mm 0,0 UV-I 0 W/m 7,7 C 3,9 km/h (1 Bft)
17.05.2018 04:00 9,4 C 87 % 1020,3 hPa 0,0 mm 0,9 km/h (0 Bft) O 0,00 h 0,0 mm 0,0 UV-I 0 W/m 7,3 C 3,5 km/h (1 Bft)
17.05.2018 05:00 9,1 C 88 % 1020,7 hPa 0,0 mm 0,8 km/h (0 Bft) O 0,00 h 0,0 mm 0,0 UV-I 5 W/m 7,1 C 4,2 km/h (1 Bft)
17.05.2018 06:00 8,8 C 86 % 1020,9 hPa 0,0 mm 0,8 km/h (0 Bft) N 0,00 h 0,0 mm 0,0 UV-I 19 W/m 6,6 C 3,7 km/h (1 Bft)
17.05.2018 07:00 9,1 C 84 % 1021,1 hPa 0,0 mm 0,8 km/h (0 Bft) O 0,00 h 0,0 mm 0,0 UV-I 75 W/m 6,5 C 4,1 km/h (1 Bft)
17.05.2018 08:00 9,6 C 81 % 1021,3 hPa 0,0 mm 0,6 km/h (0 Bft) O 0,00 h 0,0 mm 0,1 UV-I 122 W/m 6,5 C 3,3 km/h (1 Bft)
17.05.2018 09:00 10,3 C 76 % 1021,5 hPa 0,0 mm 0,7 km/h (0 Bft) O 0,42 h 0,1 mm 0,2 UV-I 361 W/m 6,3 C 3,5 km/h (1 Bft)
17.05.2018 10:00 11,3 C 72 % 1021,5 hPa 0,0 mm 1,6 km/h (1 Bft) O 0,67 h 0,2 mm 0,4 UV-I 435 W/m 6,4 C 5,7 km/h (1 Bft)
17.05.2018 11:00 12,5 C 67 % 1021,6 hPa 0,0 mm 1,3 km/h (1 Bft) O 0,83 h 0,2 mm 0,6 UV-I 650 W/m 6,5 C 6,6 km/h (2 Bft)
17.05.2018 12:00 13,5 C 66 % 1021,5 hPa 0,0 mm 2,1 km/h (1 Bft) O 0,83 h 0,3 mm 0,5 UV-I 669 W/m 7,2 C 9,4 km/h (2 Bft)
17.05.2018 13:00 14,9 C 59 % 1021,3 hPa 0,0 mm 2,4 km/h (1 Bft) N-NW 1,00 h 0,4 mm 0,7 UV-I 836 W/m 7,1 C 8,9 km/h (2 Bft)
17.05.2018 14:00 16,1 C 52 % 1021,1 hPa 0,0 mm 1,9 km/h (1 Bft) N 1,00 h 0,4 mm 0,6 UV-I 810 W/m 6,3 C 6,8 km/h (2 Bft)
17.05.2018 15:00 17,3 C 48 % 1020,8 hPa 0,0 mm 1,9 km/h (1 Bft) N-NO 1,00 h 0,4 mm 0,5 UV-I 740 W/m 6,1 C 8,1 km/h (2 Bft)
17.05.2018 16:00 17,9 C 45 % 1020,4 hPa 0,0 mm 1,9 km/h (1 Bft) NO 1,00 h 0,4 mm 0,3 UV-I 634 W/m 5,9 C 7,2 km/h (2 Bft)
17.05.2018 17:00 18,3 C 45 % 1020,3 hPa 0,0 mm 1,4 km/h (1 Bft) NO 1,00 h 0,4 mm 0,1 UV-I 482 W/m 6,0 C 4,6 km/h (1 Bft)
17.05.2018 18:00 17,7 C 49 % 1020,1 hPa 0,0 mm 2,2 km/h (1 Bft) N 1,00 h 0,3 mm 0,1 UV-I 336 W/m 6,9 C 8,0 km/h (2 Bft)
17.05.2018 19:00 16,5 C 53 % 1020,4 hPa 0,0 mm 1,7 km/h (1 Bft) N 1,00 h 0,2 mm 0,0 UV-I 181 W/m 6,7 C 6,8 km/h (2 Bft)
17.05.2018 20:00 14,8 C 59 % 1020,6 hPa 0,0 mm 0,9 km/h (0 Bft) O 0,17 h 0,1 mm 0,0 UV-I 37 W/m 6,7 C 4,4 km/h (1 Bft)
17.05.2018 21:00 13,1 C 65 % 1021,2 hPa 0,0 mm 0,4 km/h (0 Bft) O 0,08 h 0,0 mm 0,0 UV-I 8 W/m 6,7 C 3,1 km/h (1 Bft)
17.05.2018 22:00 11,6 C 72 % 1021,7 hPa 0,0 mm 0,3 km/h (0 Bft) N 0,00 h 0,0 mm 0,0 UV-I 0 W/m 6,6 C 2,4 km/h (1 Bft)
17.05.2018 23:00 10,4 C 77 % 1022,0 hPa 0,0 mm 0,4 km/h (0 Bft) N 0,00 h 0,0 mm 0,0 UV-I 0 W/m 6,5 C 2,8 km/h (1 Bft)
18.05.2018 00:00 9,4 C 80 % 1022,2 hPa 0,0 mm 0,2 km/h (0 Bft) N 0,00 h 0,0 mm 0,0 UV-I 0 W/m 6,2 C 1,8 km/h (1 Bft)
18.05.2018 01:00 8,5 C 84 % 1022,0 hPa 0,0 mm 0,1 km/h (0 Bft) N 0,00 h 0,0 mm 0,0 UV-I 0 W/m 5,9 C 1,3 km/h (1 Bft)
18.05.2018 02:00 7,9 C 86 % 1021,8 hPa 0,0 mm 0,0 km/h (0 Bft) N 0,00 h 0,0 mm 0,0 UV-I 0 W/m 5,7 C 1,1 km/h (1 Bft)
18.05.2018 03:00 8,4 C 84 % 1021,7 hPa 0,0 mm 0,3 km/h (0 Bft) N 0,00 h 0,0 mm 0,0 UV-I 0 W/m 5,9 C 2,4 km/h (1 Bft)
18.05.2018 04:00 8,8 C 82 % 1021,7 hPa 0,0 mm 0,7 km/h (0 Bft) O 0,00 h 0,0 mm 0,0 UV-I 0 W/m 5,9 C 4,4 km/h (1 Bft)
18.05.2018 05:00 8,8 C 80 % 1021,9 hPa 0,0 mm 0,7 km/h (0 Bft) O 0,00 h 0,0 mm 0,0 UV-I 5 W/m 5,6 C 4,4 km/h (1 Bft)
18.05.2018 06:00 8,6 C 79 % 1022,2 hPa 0,0 mm 0,5 km/h (0 Bft) N 0,00 h 0,0 mm 0,0 UV-I 16 W/m 5,1 C 3,5 km/h (1 Bft)
18.05.2018 07:00 8,6 C 76 % 1022,5 hPa 0,0 mm 0,1 km/h (0 Bft) O 0,00 h 0,0 mm 0,0 UV-I 69 W/m 4,6 C 1,8 km/h (1 Bft)
18.05.2018 08:00 9,0 C 75 % 1022,8 hPa 0,0 mm 0,6 km/h (0 Bft) O 0,00 h 0,0 mm 0,1 UV-I 147 W/m 4,8 C 3,5 km/h (1 Bft)
18.05.2018 09:00 9,6 C 73 % 1023,0 hPa 0,0 mm 2,8 km/h (1 Bft) O 0,33 h 0,1 mm 0,2 UV-I 276 W/m 4,9 C 10,2 km/h (2 Bft)
18.05.2018 10:00 10,5 C 69 % 1023,1 hPa 0,0 mm 2,9 km/h (1 Bft) O 0,75 h 0,2 mm 0,3 UV-I 553 W/m 5,1 C 10,3 km/h (2 Bft)
18.05.2018 11:00 11,7 C 66 % 1023,0 hPa 0,0 mm 2,5 km/h (1 Bft) O 0,92 h 0,3 mm 0,6 UV-I 680 W/m 5,4 C 9,8 km/h (2 Bft)
18.05.2018 12:00 13,1 C 61 % 1022,8 hPa 0,0 mm 1,6 km/h (1 Bft) O 1,00 h 0,3 mm 0,5 UV-I 834 W/m 5,7 C 5,9 km/h (2 Bft)
18.05.2018 13:00 14,6 C 58 % 1022,4 hPa 0,0 mm 2,3 km/h (1 Bft) O 1,00 h 0,4 mm 0,6 UV-I 838 W/m 6,3 C 9,4 km/h (2 Bft)
18.05.2018 14:00 15,6 C 53 % 1021,8 hPa 0,0 mm 2,4 km/h (1 Bft) N-NW 1,00 h 0,4 mm 0,5 UV-I 775 W/m 6,0 C 9,6 km/h (2 Bft)
18.05.2018 15:00 16,1 C 51 % 1021,4 hPa 0,0 mm 1,2 km/h (1 Bft) N-NO 1,00 h 0,4 mm 0,4 UV-I 695 W/m 5,8 C 4,6 km/h (1 Bft)
18.05.2018 16:00 16,6 C 49 % 1021,3 hPa 0,0 mm 1,7 km/h (1 Bft) N-NW 1,00 h 0,4 mm 0,2 UV-I 599 W/m 5,9 C 6,3 km/h (2 Bft)
18.05.2018 17:00 16,5 C 48 % 1021,1 hPa 0,0 mm 1,2 km/h (1 Bft) N-NO 1,00 h 0,3 mm 0,1 UV-I 434 W/m 5,5 C 5,5 km/h (1 Bft)
18.05.2018 18:00 16,4 C 51 % 1021,0 hPa 0,0 mm 0,9 km/h (0 Bft) N-NO 0,58 h 0,3 mm 0,0 UV-I 254 W/m 6,1 C 4,2 km/h (1 Bft)
18.05.2018 19:00 15,7 C 53 % 1020,9 hPa 0,0 mm 0,4 km/h (0 Bft) N 0,75 h 0,2 mm 0,0 UV-I 144 W/m 6,2 C 2,8 km/h (1 Bft)
18.05.2018 20:00 15,2 C 56 % 1020,8 hPa 0,0 mm 0,0 km/h (0 Bft) N 0,50 h 0,1 mm 0,0 UV-I 63 W/m 6,5 C 1,1 km/h (1 Bft)
18.05.2018 21:00 13,9 C 64 % 1021,1 hPa 0,0 mm 0,0 km/h (0 Bft) N 0,17 h 0,1 mm 0,0 UV-I 9 W/m 7,2 C 0,0 km/h (0 Bft)
18.05.2018 22:00 12,5 C 71 % 1021,2 hPa 0,0 mm 0,0 km/h (0 Bft) N 0,00 h 0,0 mm 0,0 UV-I 0 W/m 7,4 C 0,0 km/h (0 Bft)
18.05.2018 23:00 11,5 C 75 % 1021,5 hPa 0,0 mm 0,0 km/h (0 Bft) N 0,00 h 0,0 mm 0,0 UV-I 0 W/m 7,1 C 0,0 km/h (0 Bft)
19.05.2018 00:00 10,5 C 79 % 1021,7 hPa 0,0 mm 0,0 km/h (0 Bft) N 0,00 h 0,0 mm 0,0 UV-I 0 W/m 6,9 C 0,2 km/h (0 Bft)
19.05.2018 01:00 9,8 C 80 % 1021,9 hPa 0,0 mm 0,0 km/h (0 Bft) N 0,00 h 0,0 mm 0,0 UV-I 0 W/m 6,5 C 0,2 km/h (0 Bft)
19.05.2018 02:00 9,3 C 81 % 1021,9 hPa 0,0 mm 0,0 km/h (0 Bft) N 0,00 h 0,0 mm 0,0 UV-I 0 W/m 6,2 C 0,0 km/h (0 Bft)
19.05.2018 03:00 8,2 C 84 % 1021,8 hPa 0,0 mm 0,0 km/h (0 Bft) N 0,00 h 0,0 mm 0,0 UV-I 0 W/m 5,7 C 0,0 km/h (0 Bft)
19.05.2018 04:00 7,4 C 86 % 1021,7 hPa 0,0 mm 0,0 km/h (0 Bft) N 0,00 h 0,0 mm 0,0 UV-I 0 W/m 5,3 C 0,0 km/h (0 Bft)
19.05.2018 05:00 6,7 C 89 % 1021,7 hPa 0,0 mm 0,0 km/h (0 Bft) N 0,00 h 0,0 mm 0,0 UV-I 5 W/m 4,9 C 0,0 km/h (0 Bft)
19.05.2018 06:00 6,8 C 90 % 1021,9 hPa 0,0 mm 0,0 km/h (0 Bft) N 0,00 h 0,0 mm 0,0 UV-I 24 W/m 5,3 C 0,0 km/h (0 Bft)
19.05.2018 07:00 8,2 C 89 % 1022,2 hPa 0,0 mm 0,0 km/h (0 Bft) N 0,00 h 0,0 mm 0,0 UV-I 69 W/m 6,5 C 0,0 km/h (0 Bft)
19.05.2018 08:00 9,5 C 85 % 1022,6 hPa 0,0 mm 0,0 km/h (0 Bft) N 0,00 h 0,0 mm 0,1 UV-I 145 W/m 7,1 C 0,4 km/h (0 Bft)
19.05.2018 09:00 11,0 C 74 % 1022,8 hPa 0,0 mm 0,2 km/h (0 Bft) N 0,42 h 0,1 mm 0,3 UV-I 347 W/m 6,5 C 1,8 km/h (1 Bft)
19.05.2018 10:00 12,1 C 69 % 1022,7 hPa 0,0 mm 0,7 km/h (0 Bft) O 1,00 h 0,2 mm 0,5 UV-I 490 W/m 6,5 C 3,1 km/h (1 Bft)
19.05.2018 11:00 13,2 C 66 % 1022,7 hPa 0,0 mm 1,1 km/h (1 Bft) W-NW 1,00 h 0,3 mm 0,7 UV-I 690 W/m 6,9 C 4,4 km/h (1 Bft)
19.05.2018 12:00 14,4 C 61 % 1022,8 hPa 0,0 mm 1,8 km/h (1 Bft) O 0,42 h 0,4 mm 0,3 UV-I 468 W/m 6,9 C 7,0 km/h (2 Bft)
19.05.2018 13:00 14,3 C 62 % 1022,7 hPa 0,0 mm 1,6 km/h (1 Bft) O 0,17 h 0,2 mm 0,3 UV-I 425 W/m 7,2 C 7,0 km/h (2 Bft)
19.05.2018 14:00 16,0 C 55 % 1022,5 hPa 0,0 mm 2,2 km/h (1 Bft) N-NW 0,83 h 0,3 mm 0,5 UV-I 737 W/m 6,8 C 7,0 km/h (2 Bft)
19.05.2018 15:00 16,6 C 52 % 1022,2 hPa 0,0 mm 1,8 km/h (1 Bft) NW 1,00 h 0,4 mm 0,4 UV-I 730 W/m 6,7 C 6,5 km/h (2 Bft)
19.05.2018 16:00 17,5 C 50 % 1021,8 hPa 0,0 mm 2,3 km/h (1 Bft) N-NW 1,00 h 0,4 mm 0,2 UV-I 610 W/m 7,0 C 7,9 km/h (2 Bft)
19.05.2018 17:00 17,7 C 49 % 1021,5 hPa 0,0 mm 1,4 km/h (1 Bft) N-NW 1,00 h 0,4 mm 0,1 UV-I 474 W/m 6,9 C 5,9 km/h (2 Bft)
19.05.2018 18:00 17,4 C 50 % 1021,1 hPa 0,0 mm 0,8 km/h (0 Bft) N-NW 1,00 h 0,3 mm 0,0 UV-I 323 W/m 6,8 C 4,4 km/h (1 Bft)
19.05.2018 19:00 17,0 C 52 % 1020,8 hPa 0,0 mm 0,5 km/h (0 Bft) N 1,00 h 0,2 mm 0,0 UV-I 170 W/m 6,9 C 3,5 km/h (1 Bft)
19.05.2018 20:00 15,8 C 58 % 1020,9 hPa 0,0 mm 0,4 km/h (0 Bft) N 0,08 h 0,1 mm 0,0 UV-I 42 W/m 7,5 C 3,3 km/h (1 Bft)
19.05.2018 21:00 14,2 C 64 % 1021,4 hPa 0,0 mm 0,0 km/h (0 Bft) N 0,00 h 0,0 mm 0,0 UV-I 8 W/m 7,6 C 0,2 km/h (0 Bft)
19.05.2018 22:00 12,6 C 70 % 1021,9 hPa 0,0 mm 0,0 km/h (0 Bft) N 0,00 h 0,0 mm 0,0 UV-I 0 W/m 7,3 C 0,2 km/h (0 Bft)
19.05.2018 23:00 11,8 C 77 % 1022,2 hPa 0,0 mm 0,0 km/h (0 Bft) N 0,00 h 0,0 mm 0,0 UV-I 0 W/m 7,8 C 0,0 km/h (0 Bft)
20.05.2018 00:00 11,2 C 82 % 1022,1 hPa 0,0 mm 0,0 km/h (0 Bft) N 0,00 h 0,0 mm 0,0 UV-I 0 W/m 8,2 C 0,2 km/h (0 Bft)
20.05.2018 01:00 10,3 C 86 % 1022,2 hPa 0,0 mm 0,1 km/h (0 Bft) N 0,00 h 0,0 mm 0,0 UV-I 0 W/m 8,0 C 1,1 km/h (1 Bft)
20.05.2018 02:00 9,6 C 87 % 1022,2 hPa 0,0 mm 0,0 km/h (0 Bft) N 0,00 h 0,0 mm 0,0 UV-I 0 W/m 7,6 C 0,0 km/h (0 Bft)
20.05.2018 03:00 8,9 C 89 % 1022,1 hPa 0,0 mm 0,0 km/h (0 Bft) N 0,00 h 0,0 mm 0,0 UV-I 0 W/m 7,1 C 0,0 km/h (0 Bft)
20.05.2018 04:00 8,3 C 90 % 1021,9 hPa 0,0 mm 0,0 km/h (0 Bft) N 0,00 h 0,0 mm 0,0 UV-I 0 W/m 6,8 C 0,0 km/h (0 Bft)
20.05.2018 05:00 7,8 C 91 % 1021,9 hPa 0,0 mm 0,0 km/h (0 Bft) N 0,00 h 0,0 mm 0,0 UV-I 5 W/m 6,4 C 0,0 km/h (0 Bft)
20.05.2018 06:00 7,7 C 94 % 1022,1 hPa 0,0 mm 0,0 km/h (0 Bft) N 0,00 h 0,0 mm 0,0 UV-I 20 W/m 6,7 C 0,0 km/h (0 Bft)
20.05.2018 07:00 8,6 C 95 % 1022,4 hPa 0,0 mm 0,0 km/h (0 Bft) N 0,00 h 0,0 mm 0,0 UV-I 40 W/m 7,9 C 0,0 km/h (0 Bft)
20.05.2018 08:00 10,7 C 92 % 1022,5 hPa 0,0 mm 0,5 km/h (0 Bft) O 0,00 h 0,0 mm 0,1 UV-I 78 W/m 9,4 C 1,9 km/h (1 Bft)
20.05.2018 09:00 13,3 C 78 % 1022,7 hPa 0,0 mm 0,3 km/h (0 Bft) NW 0,67 h 0,1 mm 0,3 UV-I 362 W/m 9,5 C 2,2 km/h (1 Bft)
20.05.2018 10:00 15,7 C 70 % 1022,5 hPa 0,0 mm 0,4 km/h (0 Bft) N 1,00 h 0,2 mm 0,8 UV-I 590 W/m 10,2 C 3,1 km/h (1 Bft)
20.05.2018 11:00 18,1 C 59 % 1022,1 hPa 0,0 mm 0,6 km/h (0 Bft) S-SW 1,00 h 0,3 mm 1,0 UV-I 707 W/m 10,0 C 3,1 km/h (1 Bft)
20.05.2018 12:00 20,4 C 54 % 1021,7 hPa 0,0 mm 1,2 km/h (1 Bft) S 1,00 h 0,4 mm 0,5 UV-I 777 W/m 10,6 C 4,8 km/h (1 Bft)
20.05.2018 13:00 22,2 C 50 % 1021,2 hPa 0,0 mm 1,4 km/h (1 Bft) S 0,92 h 0,5 mm 0,5 UV-I 742 W/m 11,3 C 5,5 km/h (1 Bft)
20.05.2018 14:00 22,9 C 49 % 1020,4 hPa 0,2 mm 0,7 km/h (0 Bft) S-SO 0,67 h 0,5 mm 0,4 UV-I 535 W/m 11,6 C 2,8 km/h (1 Bft)
20.05.2018 15:00 22,6 C 52 % 1019,6 hPa 0,0 mm 1,1 km/h (1 Bft) S 0,58 h 0,3 mm 0,3 UV-I 550 W/m 12,2 C 4,8 km/h (1 Bft)
20.05.2018 16:00 23,7 C 48 % 1018,8 hPa 0,0 mm 1,0 km/h (0 Bft) SO 0,50 h 0,4 mm 0,2 UV-I 332 W/m 11,8 C 5,2 km/h (1 Bft)
20.05.2018 17:00 24,8 C 40 % 1018,1 hPa 0,0 mm 1,6 km/h (1 Bft) SO 0,75 h 0,2 mm 0,1 UV-I 396 W/m 10,2 C 5,9 km/h (2 Bft)
20.05.2018 18:00 24,1 C 40 % 1018,1 hPa 0,0 mm 7,3 km/h (2 Bft) W 0,50 h 0,3 mm 0,0 UV-I 258 W/m 9,7 C 18,9 km/h (3 Bft)
20.05.2018 19:00 21,2 C 50 % 1018,5 hPa 0,0 mm 6,8 km/h (2 Bft) O 0,83 h 0,2 mm 0,0 UV-I 190 W/m 10,4 C 15,9 km/h (3 Bft)
20.05.2018 20:00 19,5 C 58 % 1018,6 hPa 0,0 mm 1,8 km/h (1 Bft) O 0,25 h 0,2 mm 0,0 UV-I 43 W/m 11,0 C 5,4 km/h (1 Bft)
20.05.2018 21:00 17,7 C 68 % 1018,9 hPa 0,0 mm 0,2 km/h (0 Bft) N 0,08 h 0,0 mm 0,0 UV-I 7 W/m 11,6 C 1,1 km/h (1 Bft)
20.05.2018 22:00 15,9 C 74 % 1019,1 hPa 0,0 mm 0,2 km/h (0 Bft) N 0,00 h 0,0 mm 0,0 UV-I 0 W/m 11,3 C 1,6 km/h (1 Bft)
20.05.2018 23:00 14,6 C 80 % 1019,1 hPa 0,0 mm 0,2 km/h (0 Bft) N 0,00 h 0,0 mm 0,0 UV-I 0 W/m 11,2 C 1,1 km/h (1 Bft)
Min-Datum _ 19.05.18 15.05.18 14.05.18 - 14.05.18 - - - - - 18.05.18 14.05.18
_ Min-Zeit 06:05 13:15 17:55 - 02:50 - - - - - 07:25 03:20
Minimum _ 6,4 C 29 % 1009,7 hPa - 0,0 km/h (0 Bft) - - - - - 3,9 C 0,0 km/h (0 Bft)
Max-Datum _ 14.05.18 14.05.18 18.05.18 16.05.18 20.05.18 - 14.05.18 15.05.18 15.05.18 15.05.18 14.05.18 20.05.18
_ Max-Zeit 17:30 07:10 10:25 19:50 18:45 - 10:55 14:05 11:05 13:15 13:45 18:45
Maximum _ 26,6 C 99 % 1023,2 hPa 3,6 mm 13,8 km/h
W (3 Bft)
- 0,08 h 0,5 mm 2,3 UV-I 966 W/m 17,0 C 33,3 km/h
S-SW (5 Bft)
Durchschnitt _ 15,1 C 69 % 1017,9 hPa #6,2 mm 1,0 km/h (0 Bft) O #54:50 h #21,591 mm 0,4 UV-I 317 W/m 8,8 C 3,8 km/h (1 Bft)



© 1998 - 2018 www.pulheimwetter.de